sensor_id;sensor_type;location;lat;lon;timestamp;temperature;humidity
20946;DHT22;10632;51.276;7.116;2022-12-18T00:00:45;-2.20;99.90
20946;DHT22;10632;51.276;7.116;2022-12-18T00:03:18;-2.20;99.90
20946;DHT22;10632;51.276;7.116;2022-12-18T00:05:51;-2.10;99.90
20946;DHT22;10632;51.276;7.116;2022-12-18T00:08:19;-2.10;99.90
20946;DHT22;10632;51.276;7.116;2022-12-18T00:10:46;-2.10;99.90
20946;DHT22;10632;51.276;7.116;2022-12-18T00:13:13;-2.10;99.90
20946;DHT22;10632;51.276;7.116;2022-12-18T00:15:42;-2.10;99.90
20946;DHT22;10632;51.276;7.116;2022-12-18T00:18:09;-2.10;99.90
20946;DHT22;10632;51.276;7.116;2022-12-18T00:20:38;-2.10;99.90
20946;DHT22;10632;51.276;7.116;2022-12-18T00:23:06;-2.10;99.90
20946;DHT22;10632;51.276;7.116;2022-12-18T00:26:07;-2.10;99.90
20946;DHT22;10632;51.276;7.116;2022-12-18T00:28:38;-2.10;99.90
20946;DHT22;10632;51.276;7.116;2022-12-18T00:31:06;-2.10;99.90
20946;DHT22;10632;51.276;7.116;2022-12-18T00:33:34;-2.10;99.90
20946;DHT22;10632;51.276;7.116;2022-12-18T00:36:10;-2.10;99.90
20946;DHT22;10632;51.276;7.116;2022-12-18T00:38:40;-2.10;99.90
20946;DHT22;10632;51.276;7.116;2022-12-18T00:41:08;-2.10;99.90
20946;DHT22;10632;51.276;7.116;2022-12-18T00:43:36;-2.10;99.90
20946;DHT22;10632;51.276;7.116;2022-12-18T00:46:02;-2.20;99.90
20946;DHT22;10632;51.276;7.116;2022-12-18T00:48:29;-2.10;99.90
20946;DHT22;10632;51.276;7.116;2022-12-18T00:50:56;-2.10;99.90
20946;DHT22;10632;51.276;7.116;2022-12-18T00:53:25;-2.10;99.90
20946;DHT22;10632;51.276;7.116;2022-12-18T00:55:52;-2.20;99.90
20946;DHT22;10632;51.276;7.116;2022-12-18T00:58:19;-2.10;99.90
20946;DHT22;10632;51.276;7.116;2022-12-18T01:00:46;-2.20;99.90
20946;DHT22;10632;51.276;7.116;2022-12-18T01:03:15;-2.10;99.90
20946;DHT22;10632;51.276;7.116;2022-12-18T01:05:42;-2.20;99.90
20946;DHT22;10632;51.276;7.116;2022-12-18T01:08:09;-2.10;99.90
20946;DHT22;10632;51.276;7.116;2022-12-18T01:10:40;-2.10;99.90
20946;DHT22;10632;51.276;7.116;2022-12-18T01:13:10;-2.10;99.90
20946;DHT22;10632;51.276;7.116;2022-12-18T01:15:37;-2.10;99.90
20946;DHT22;10632;51.276;7.116;2022-12-18T01:18:07;-2.00;99.90
20946;DHT22;10632;51.276;7.116;2022-12-18T01:20:33;-2.10;99.90
20946;DHT22;10632;51.276;7.116;2022-12-18T01:23:00;-2.10;99.90
20946;DHT22;10632;51.276;7.116;2022-12-18T01:25:27;-2.10;99.90
20946;DHT22;10632;51.276;7.116;2022-12-18T01:27:56;-2.10;99.90
20946;DHT22;10632;51.276;7.116;2022-12-18T01:30:23;-2.10;99.90
20946;DHT22;10632;51.276;7.116;2022-12-18T01:32:53;-2.10;99.90
20946;DHT22;10632;51.276;7.116;2022-12-18T01:35:24;-2.10;99.90
20946;DHT22;10632;51.276;7.116;2022-12-18T01:37:54;-2.10;99.90
20946;DHT22;10632;51.276;7.116;2022-12-18T01:40:21;-2.10;99.90
20946;DHT22;10632;51.276;7.116;2022-12-18T01:42:50;-2.10;99.90
20946;DHT22;10632;51.276;7.116;2022-12-18T01:45:27;-2.10;99.90
20946;DHT22;10632;51.276;7.116;2022-12-18T01:47:56;-2.10;99.90
20946;DHT22;10632;51.276;7.116;2022-12-18T01:50:27;-2.10;99.90
20946;DHT22;10632;51.276;7.116;2022-12-18T01:52:58;-2.20;99.90
20946;DHT22;10632;51.276;7.116;2022-12-18T01:55:28;-2.10;99.90
20946;DHT22;10632;51.276;7.116;2022-12-18T01:57:58;-2.10;99.90
20946;DHT22;10632;51.276;7.116;2022-12-18T02:00:28;-2.20;99.90
20946;DHT22;10632;51.276;7.116;2022-12-18T02:02:55;-2.20;99.90
20946;DHT22;10632;51.276;7.116;2022-12-18T02:05:29;-2.20;99.90
20946;DHT22;10632;51.276;7.116;2022-12-18T02:08:09;-2.30;99.90
20946;DHT22;10632;51.276;7.116;2022-12-18T02:10:43;-2.30;99.90
20946;DHT22;10632;51.276;7.116;2022-12-18T02:13:19;-2.30;99.90
20946;DHT22;10632;51.276;7.116;2022-12-18T02:16:02;-2.30;99.90
20946;DHT22;10632;51.276;7.116;2022-12-18T02:18:38;-2.40;99.90
20946;DHT22;10632;51.276;7.116;2022-12-18T02:21:15;-2.40;99.90
20946;DHT22;10632;51.276;7.116;2022-12-18T02:23:52;-2.40;99.90
20946;DHT22;10632;51.276;7.116;2022-12-18T02:26:28;-2.40;99.90
20946;DHT22;10632;51.276;7.116;2022-12-18T02:29:03;-2.40;99.90
20946;DHT22;10632;51.276;7.116;2022-12-18T02:31:36;-2.40;99.90
20946;DHT22;10632;51.276;7.116;2022-12-18T02:34:07;-2.40;99.90
20946;DHT22;10632;51.276;7.116;2022-12-18T02:36:38;-2.40;99.90
20946;DHT22;10632;51.276;7.116;2022-12-18T02:39:07;-2.40;99.90
20946;DHT22;10632;51.276;7.116;2022-12-18T02:41:37;-2.30;99.90
20946;DHT22;10632;51.276;7.116;2022-12-18T02:44:08;-2.30;99.90
20946;DHT22;10632;51.276;7.116;2022-12-18T02:46:37;-2.30;99.90
20946;DHT22;10632;51.276;7.116;2022-12-18T02:49:15;-2.30;99.90
20946;DHT22;10632;51.276;7.116;2022-12-18T02:51:50;-2.30;99.90
20946;DHT22;10632;51.276;7.116;2022-12-18T02:54:37;-2.30;99.90
20946;DHT22;10632;51.276;7.116;2022-12-18T02:57:14;-2.30;99.90
20946;DHT22;10632;51.276;7.116;2022-12-18T02:59:49;-2.20;99.90
20946;DHT22;10632;51.276;7.116;2022-12-18T03:02:21;-2.20;99.90
20946;DHT22;10632;51.276;7.116;2022-12-18T03:04:57;-2.30;99.90
20946;DHT22;10632;51.276;7.116;2022-12-18T03:07:32;-2.20;99.90
20946;DHT22;10632;51.276;7.116;2022-12-18T03:10:05;-2.20;99.90
20946;DHT22;10632;51.276;7.116;2022-12-18T03:12:36;-2.20;99.90
20946;DHT22;10632;51.276;7.116;2022-12-18T03:15:09;-2.20;99.90
20946;DHT22;10632;51.276;7.116;2022-12-18T03:17:41;-2.20;99.90
20946;DHT22;10632;51.276;7.116;2022-12-18T03:20:12;-2.20;99.90
20946;DHT22;10632;51.276;7.116;2022-12-18T03:22:43;-2.30;99.90
20946;DHT22;10632;51.276;7.116;2022-12-18T03:25:13;-2.30;99.90
20946;DHT22;10632;51.276;7.116;2022-12-18T03:27:46;-2.30;99.90
20946;DHT22;10632;51.276;7.116;2022-12-18T03:30:15;-2.30;99.90
20946;DHT22;10632;51.276;7.116;2022-12-18T03:32:47;-2.30;99.90
20946;DHT22;10632;51.276;7.116;2022-12-18T03:35:18;-2.30;99.90
20946;DHT22;10632;51.276;7.116;2022-12-18T03:37:47;-2.30;99.90
20946;DHT22;10632;51.276;7.116;2022-12-18T03:40:14;-2.30;99.90
20946;DHT22;10632;51.276;7.116;2022-12-18T03:42:46;-2.30;99.90
20946;DHT22;10632;51.276;7.116;2022-12-18T03:45:22;-2.30;99.90
20946;DHT22;10632;51.276;7.116;2022-12-18T03:47:58;-2.30;99.90
20946;DHT22;10632;51.276;7.116;2022-12-18T03:50:34;-2.30;99.90
20946;DHT22;10632;51.276;7.116;2022-12-18T03:53:14;-2.30;99.90
20946;DHT22;10632;51.276;7.116;2022-12-18T03:55:44;-2.30;99.90
20946;DHT22;10632;51.276;7.116;2022-12-18T03:58:16;-2.30;99.90
20946;DHT22;10632;51.276;7.116;2022-12-18T04:00:45;-2.30;99.90
20946;DHT22;10632;51.276;7.116;2022-12-18T04:03:15;-2.30;99.90
20946;DHT22;10632;51.276;7.116;2022-12-18T04:05:44;-2.30;99.90
20946;DHT22;10632;51.276;7.116;2022-12-18T04:08:14;-2.30;99.90
20946;DHT22;10632;51.276;7.116;2022-12-18T04:10:41;-2.30;99.90
20946;DHT22;10632;51.276;7.116;2022-12-18T04:13:09;-2.30;99.90
20946;DHT22;10632;51.276;7.116;2022-12-18T04:15:39;-2.30;99.90
20946;DHT22;10632;51.276;7.116;2022-12-18T04:18:08;-2.30;99.90
20946;DHT22;10632;51.276;7.116;2022-12-18T04:20:37;-2.30;99.90
20946;DHT22;10632;51.276;7.116;2022-12-18T04:23:04;-2.30;99.90
20946;DHT22;10632;51.276;7.116;2022-12-18T04:25:31;-2.30;99.90
20946;DHT22;10632;51.276;7.116;2022-12-18T04:27:58;-2.30;99.90
20946;DHT22;10632;51.276;7.116;2022-12-18T04:30:25;-2.30;99.90
20946;DHT22;10632;51.276;7.116;2022-12-18T04:32:54;-2.30;99.90
20946;DHT22;10632;51.276;7.116;2022-12-18T04:35:21;-2.30;99.90
20946;DHT22;10632;51.276;7.116;2022-12-18T04:37:48;-2.40;99.90
20946;DHT22;10632;51.276;7.116;2022-12-18T04:40:16;-2.30;99.90
20946;DHT22;10632;51.276;7.116;2022-12-18T04:42:45;-2.30;99.90
20946;DHT22;10632;51.276;7.116;2022-12-18T04:45:12;-2.30;99.90
20946;DHT22;10632;51.276;7.116;2022-12-18T04:47:39;-2.30;99.90
20946;DHT22;10632;51.276;7.116;2022-12-18T04:50:08;-2.30;99.90
20946;DHT22;10632;51.276;7.116;2022-12-18T04:52:35;-2.30;99.90
20946;DHT22;10632;51.276;7.116;2022-12-18T04:55:02;-2.30;99.90
20946;DHT22;10632;51.276;7.116;2022-12-18T04:57:29;-2.20;99.90
20946;DHT22;10632;51.276;7.116;2022-12-18T04:59:56;-2.20;99.90
20946;DHT22;10632;51.276;7.116;2022-12-18T05:02:23;-2.20;99.90
20946;DHT22;10632;51.276;7.116;2022-12-18T05:04:50;-2.20;99.90
20946;DHT22;10632;51.276;7.116;2022-12-18T05:07:18;-2.10;99.90
20946;DHT22;10632;51.276;7.116;2022-12-18T05:09:45;-2.10;99.90
20946;DHT22;10632;51.276;7.116;2022-12-18T05:12:12;-2.20;99.90
20946;DHT22;10632;51.276;7.116;2022-12-18T05:14:39;-2.10;99.90
20946;DHT22;10632;51.276;7.116;2022-12-18T05:17:06;-2.10;99.90
20946;DHT22;10632;51.276;7.116;2022-12-18T05:19:33;-2.10;99.90
20946;DHT22;10632;51.276;7.116;2022-12-18T05:22:01;-2.10;99.90
20946;DHT22;10632;51.276;7.116;2022-12-18T05:24:29;-2.10;99.90
20946;DHT22;10632;51.276;7.116;2022-12-18T05:26:56;-2.00;99.90
20946;DHT22;10632;51.276;7.116;2022-12-18T05:29:23;-2.00;99.90
20946;DHT22;10632;51.276;7.116;2022-12-18T05:32:00;-2.00;99.90
20946;DHT22;10632;51.276;7.116;2022-12-18T05:34:37;-2.00;99.90
20946;DHT22;10632;51.276;7.116;2022-12-18T05:37:04;-2.00;99.90
20946;DHT22;10632;51.276;7.116;2022-12-18T05:39:34;-2.10;99.90
20946;DHT22;10632;51.276;7.116;2022-12-18T05:42:00;-2.10;99.90
20946;DHT22;10632;51.276;7.116;2022-12-18T05:44:29;-2.10;99.90
20946;DHT22;10632;51.276;7.116;2022-12-18T05:46:58;-2.10;99.90
20946;DHT22;10632;51.276;7.116;2022-12-18T05:49:25;-2.10;99.90
20946;DHT22;10632;51.276;7.116;2022-12-18T05:51:55;-2.10;99.90
20946;DHT22;10632;51.276;7.116;2022-12-18T05:54:22;-2.00;99.90
20946;DHT22;10632;51.276;7.116;2022-12-18T05:56:51;-2.00;99.90
20946;DHT22;10632;51.276;7.116;2022-12-18T05:59:18;-2.00;99.90
20946;DHT22;10632;51.276;7.116;2022-12-18T06:01:45;-2.00;99.90
20946;DHT22;10632;51.276;7.116;2022-12-18T06:04:12;-2.00;99.90
20946;DHT22;10632;51.276;7.116;2022-12-18T06:06:39;-1.90;99.90
20946;DHT22;10632;51.276;7.116;2022-12-18T06:09:06;-1.90;99.90
20946;DHT22;10632;51.276;7.116;2022-12-18T06:11:36;-1.90;99.90
20946;DHT22;10632;51.276;7.116;2022-12-18T06:14:05;-1.90;99.90
20946;DHT22;10632;51.276;7.116;2022-12-18T06:16:32;-1.90;99.90
20946;DHT22;10632;51.276;7.116;2022-12-18T06:19:01;-1.90;99.90
20946;DHT22;10632;51.276;7.116;2022-12-18T06:21:29;-1.90;99.90
20946;DHT22;10632;51.276;7.116;2022-12-18T06:23:56;-1.90;99.90
20946;DHT22;10632;51.276;7.116;2022-12-18T06:26:23;-1.90;99.90
20946;DHT22;10632;51.276;7.116;2022-12-18T06:29:10;-1.90;99.90
20946;DHT22;10632;51.276;7.116;2022-12-18T06:31:38;-1.90;99.90
20946;DHT22;10632;51.276;7.116;2022-12-18T06:34:05;-1.90;99.90
20946;DHT22;10632;51.276;7.116;2022-12-18T06:36:35;-1.90;99.90
20946;DHT22;10632;51.276;7.116;2022-12-18T06:39:02;-1.90;99.90
20946;DHT22;10632;51.276;7.116;2022-12-18T06:41:32;-1.90;99.90
20946;DHT22;10632;51.276;7.116;2022-12-18T06:43:59;-1.90;99.90
20946;DHT22;10632;51.276;7.116;2022-12-18T06:46:27;-1.90;99.90
20946;DHT22;10632;51.276;7.116;2022-12-18T06:48:57;-1.90;99.90
20946;DHT22;10632;51.276;7.116;2022-12-18T06:51:26;-1.90;99.90
20946;DHT22;10632;51.276;7.116;2022-12-18T06:53:54;-1.80;99.90
20946;DHT22;10632;51.276;7.116;2022-12-18T06:56:22;-1.80;99.90
20946;DHT22;10632;51.276;7.116;2022-12-18T06:58:49;-1.80;99.90
20946;DHT22;10632;51.276;7.116;2022-12-18T07:01:19;-1.80;99.90
20946;DHT22;10632;51.276;7.116;2022-12-18T07:03:50;-1.90;99.90
20946;DHT22;10632;51.276;7.116;2022-12-18T07:06:20;-1.80;99.90
20946;DHT22;10632;51.276;7.116;2022-12-18T07:08:50;-1.90;99.90
20946;DHT22;10632;51.276;7.116;2022-12-18T07:11:18;-1.80;99.90
20946;DHT22;10632;51.276;7.116;2022-12-18T07:13:48;-1.90;99.90
20946;DHT22;10632;51.276;7.116;2022-12-18T07:16:16;-1.80;99.90
20946;DHT22;10632;51.276;7.116;2022-12-18T07:18:44;-1.80;99.90
20946;DHT22;10632;51.276;7.116;2022-12-18T07:21:17;-1.80;99.90
20946;DHT22;10632;51.276;7.116;2022-12-18T07:23:44;-1.80;99.90
20946;DHT22;10632;51.276;7.116;2022-12-18T07:26:14;-1.80;99.90
20946;DHT22;10632;51.276;7.116;2022-12-18T07:28:43;-1.80;99.90
20946;DHT22;10632;51.276;7.116;2022-12-18T07:31:11;-1.70;99.90
20946;DHT22;10632;51.276;7.116;2022-12-18T07:33:39;-1.70;99.90
20946;DHT22;10632;51.276;7.116;2022-12-18T07:36:07;-1.70;99.90
20946;DHT22;10632;51.276;7.116;2022-12-18T07:38:36;-1.70;99.90
20946;DHT22;10632;51.276;7.116;2022-12-18T07:41:05;-1.70;99.90
20946;DHT22;10632;51.276;7.116;2022-12-18T07:43:33;-1.70;99.90
20946;DHT22;10632;51.276;7.116;2022-12-18T07:46:01;-1.70;99.90
20946;DHT22;10632;51.276;7.116;2022-12-18T07:48:28;-1.60;99.90
20946;DHT22;10632;51.276;7.116;2022-12-18T07:50:58;-1.60;99.90
20946;DHT22;10632;51.276;7.116;2022-12-18T07:53:25;-1.60;99.90
20946;DHT22;10632;51.276;7.116;2022-12-18T07:55:57;-1.60;99.90
20946;DHT22;10632;51.276;7.116;2022-12-18T07:58:24;-1.50;99.90
20946;DHT22;10632;51.276;7.116;2022-12-18T08:01:01;-1.60;99.90
20946;DHT22;10632;51.276;7.116;2022-12-18T08:03:28;-1.60;99.90
20946;DHT22;10632;51.276;7.116;2022-12-18T08:05:58;-1.60;99.90
20946;DHT22;10632;51.276;7.116;2022-12-18T08:08:25;-1.60;99.90
20946;DHT22;10632;51.276;7.116;2022-12-18T08:10:53;-1.40;99.90
20946;DHT22;10632;51.276;7.116;2022-12-18T08:13:22;-1.40;99.90
20946;DHT22;10632;51.276;7.116;2022-12-18T08:15:56;-1.40;99.90
20946;DHT22;10632;51.276;7.116;2022-12-18T08:18:24;-1.30;99.90
20946;DHT22;10632;51.276;7.116;2022-12-18T08:20:51;-1.30;99.90
20946;DHT22;10632;51.276;7.116;2022-12-18T08:23:26;-1.30;99.90
20946;DHT22;10632;51.276;7.116;2022-12-18T08:25:55;-1.20;99.90
20946;DHT22;10632;51.276;7.116;2022-12-18T08:28:26;-1.30;99.90
20946;DHT22;10632;51.276;7.116;2022-12-18T08:30:53;-1.30;99.90
20946;DHT22;10632;51.276;7.116;2022-12-18T08:33:20;-1.20;99.90
20946;DHT22;10632;51.276;7.116;2022-12-18T08:35:50;-1.20;99.90
20946;DHT22;10632;51.276;7.116;2022-12-18T08:38:17;-1.20;99.90
20946;DHT22;10632;51.276;7.116;2022-12-18T08:40:45;-1.20;99.90
20946;DHT22;10632;51.276;7.116;2022-12-18T08:43:12;-1.10;99.90
20946;DHT22;10632;51.276;7.116;2022-12-18T08:45:58;-1.00;99.90
20946;DHT22;10632;51.276;7.116;2022-12-18T08:48:25;-1.10;99.90
20946;DHT22;10632;51.276;7.116;2022-12-18T08:50:55;-1.00;99.90
20946;DHT22;10632;51.276;7.116;2022-12-18T08:53:22;-1.00;99.90
20946;DHT22;10632;51.276;7.116;2022-12-18T08:55:54;-0.90;99.90
20946;DHT22;10632;51.276;7.116;2022-12-18T08:58:25;-0.90;99.90
20946;DHT22;10632;51.276;7.116;2022-12-18T09:00:52;-0.80;99.90
20946;DHT22;10632;51.276;7.116;2022-12-18T09:03:21;-0.70;99.90
20946;DHT22;10632;51.276;7.116;2022-12-18T09:05:48;-0.70;99.90
20946;DHT22;10632;51.276;7.116;2022-12-18T09:08:15;-0.60;99.90
20946;DHT22;10632;51.276;7.116;2022-12-18T09:10:42;-0.50;99.90
20946;DHT22;10632;51.276;7.116;2022-12-18T09:13:10;-0.40;99.90
20946;DHT22;10632;51.276;7.116;2022-12-18T09:15:40;-0.40;99.90
20946;DHT22;10632;51.276;7.116;2022-12-18T09:18:08;-0.30;99.90
20946;DHT22;10632;51.276;7.116;2022-12-18T09:20:37;-0.30;99.90
20946;DHT22;10632;51.276;7.116;2022-12-18T09:23:04;-0.20;99.90
20946;DHT22;10632;51.276;7.116;2022-12-18T09:25:32;-0.10;99.90
20946;DHT22;10632;51.276;7.116;2022-12-18T09:28:02;-0.10;99.90
20946;DHT22;10632;51.276;7.116;2022-12-18T09:30:29;0.00;99.90
20946;DHT22;10632;51.276;7.116;2022-12-18T09:32:58;0.00;99.90
20946;DHT22;10632;51.276;7.116;2022-12-18T09:35:25;0.10;99.90
20946;DHT22;10632;51.276;7.116;2022-12-18T09:37:54;0.20;99.90
20946;DHT22;10632;51.276;7.116;2022-12-18T09:40:23;0.20;99.90
20946;DHT22;10632;51.276;7.116;2022-12-18T09:42:56;0.30;99.90
20946;DHT22;10632;51.276;7.116;2022-12-18T09:45:25;0.40;99.90
20946;DHT22;10632;51.276;7.116;2022-12-18T09:47:54;0.50;99.90
20946;DHT22;10632;51.276;7.116;2022-12-18T09:50:26;0.50;99.90
20946;DHT22;10632;51.276;7.116;2022-12-18T09:52:59;0.60;99.90
20946;DHT22;10632;51.276;7.116;2022-12-18T09:55:33;0.70;99.90
20946;DHT22;10632;51.276;7.116;2022-12-18T09:58:04;0.70;99.90
20946;DHT22;10632;51.276;7.116;2022-12-18T10:00:32;0.80;99.90
20946;DHT22;10632;51.276;7.116;2022-12-18T10:03:08;0.80;99.90
20946;DHT22;10632;51.276;7.116;2022-12-18T10:05:39;0.90;99.90
20946;DHT22;10632;51.276;7.116;2022-12-18T10:08:13;0.90;99.90
20946;DHT22;10632;51.276;7.116;2022-12-18T10:10:47;0.90;99.90
20946;DHT22;10632;51.276;7.116;2022-12-18T10:13:23;1.00;99.90
20946;DHT22;10632;51.276;7.116;2022-12-18T10:16:00;1.00;99.90
20946;DHT22;10632;51.276;7.116;2022-12-18T10:18:45;1.00;99.90
20946;DHT22;10632;51.276;7.116;2022-12-18T10:21:18;1.10;99.90
20946;DHT22;10632;51.276;7.116;2022-12-18T10:23:56;1.00;99.90
20946;DHT22;10632;51.276;7.116;2022-12-18T10:26:25;1.10;99.90
20946;DHT22;10632;51.276;7.116;2022-12-18T10:28:53;1.10;99.90
20946;DHT22;10632;51.276;7.116;2022-12-18T10:31:22;1.10;99.90
20946;DHT22;10632;51.276;7.116;2022-12-18T10:33:53;1.20;99.90
20946;DHT22;10632;51.276;7.116;2022-12-18T10:36:20;1.20;99.90
20946;DHT22;10632;51.276;7.116;2022-12-18T10:38:48;1.20;99.90
20946;DHT22;10632;51.276;7.116;2022-12-18T10:41:26;1.30;99.90
20946;DHT22;10632;51.276;7.116;2022-12-18T10:44:10;1.30;99.90
20946;DHT22;10632;51.276;7.116;2022-12-18T10:46:38;1.30;99.90
20946;DHT22;10632;51.276;7.116;2022-12-18T10:49:05;1.40;99.90
20946;DHT22;10632;51.276;7.116;2022-12-18T10:51:34;1.40;99.90
20946;DHT22;10632;51.276;7.116;2022-12-18T10:54:06;1.50;99.90
20946;DHT22;10632;51.276;7.116;2022-12-18T10:56:34;1.50;99.90
20946;DHT22;10632;51.276;7.116;2022-12-18T10:59:03;1.50;99.90
20946;DHT22;10632;51.276;7.116;2022-12-18T11:01:46;1.60;99.90
20946;DHT22;10632;51.276;7.116;2022-12-18T11:04:17;1.60;99.90
20946;DHT22;10632;51.276;7.116;2022-12-18T11:06:53;1.70;99.90
20946;DHT22;10632;51.276;7.116;2022-12-18T11:09:23;1.70;99.90
20946;DHT22;10632;51.276;7.116;2022-12-18T11:11:52;1.80;99.90
20946;DHT22;10632;51.276;7.116;2022-12-18T11:14:22;1.80;99.90
20946;DHT22;10632;51.276;7.116;2022-12-18T11:16:50;1.80;99.90
20946;DHT22;10632;51.276;7.116;2022-12-18T11:19:31;1.90;99.90
20946;DHT22;10632;51.276;7.116;2022-12-18T11:22:00;1.90;99.90
20946;DHT22;10632;51.276;7.116;2022-12-18T11:24:30;1.90;99.90
20946;DHT22;10632;51.276;7.116;2022-12-18T11:26:59;2.00;99.90
20946;DHT22;10632;51.276;7.116;2022-12-18T11:29:32;2.00;99.90
20946;DHT22;10632;51.276;7.116;2022-12-18T11:32:24;2.00;99.90
20946;DHT22;10632;51.276;7.116;2022-12-18T11:34:59;2.10;99.90
20946;DHT22;10632;51.276;7.116;2022-12-18T11:37:28;2.10;99.90
20946;DHT22;10632;51.276;7.116;2022-12-18T11:39:59;2.10;99.90
20946;DHT22;10632;51.276;7.116;2022-12-18T11:42:33;2.10;99.90
20946;DHT22;10632;51.276;7.116;2022-12-18T11:45:27;2.10;99.90
20946;DHT22;10632;51.276;7.116;2022-12-18T11:47:58;2.10;99.90
20946;DHT22;10632;51.276;7.116;2022-12-18T11:50:31;2.10;99.90
20946;DHT22;10632;51.276;7.116;2022-12-18T11:53:00;2.10;99.90
20946;DHT22;10632;51.276;7.116;2022-12-18T11:55:37;2.10;99.90
20946;DHT22;10632;51.276;7.116;2022-12-18T11:58:12;2.10;99.90
20946;DHT22;10632;51.276;7.116;2022-12-18T12:00:50;2.00;99.90
20946;DHT22;10632;51.276;7.116;2022-12-18T12:03:27;2.00;99.90
20946;DHT22;10632;51.276;7.116;2022-12-18T12:06:07;2.00;99.90
20946;DHT22;10632;51.276;7.116;2022-12-18T12:08:53;2.00;99.90
20946;DHT22;10632;51.276;7.116;2022-12-18T12:11:31;2.00;99.90
20946;DHT22;10632;51.276;7.116;2022-12-18T12:14:16;2.00;99.90
20946;DHT22;10632;51.276;7.116;2022-12-18T12:16:53;1.90;99.90
20946;DHT22;10632;51.276;7.116;2022-12-18T12:19:37;1.90;99.90
20946;DHT22;10632;51.276;7.116;2022-12-18T12:22:10;1.90;99.90
20946;DHT22;10632;51.276;7.116;2022-12-18T12:24:51;1.90;99.90
20946;DHT22;10632;51.276;7.116;2022-12-18T12:27:30;1.80;99.90
20946;DHT22;10632;51.276;7.116;2022-12-18T12:30:04;1.80;99.90
20946;DHT22;10632;51.276;7.116;2022-12-18T12:32:46;1.80;99.90
20946;DHT22;10632;51.276;7.116;2022-12-18T12:35:25;1.80;99.90
20946;DHT22;10632;51.276;7.116;2022-12-18T12:38:04;1.70;99.90
20946;DHT22;10632;51.276;7.116;2022-12-18T12:40:35;1.70;99.90
20946;DHT22;10632;51.276;7.116;2022-12-18T12:43:18;1.70;99.90
20946;DHT22;10632;51.276;7.116;2022-12-18T12:45:48;1.60;99.90
20946;DHT22;10632;51.276;7.116;2022-12-18T12:48:22;1.60;99.90
20946;DHT22;10632;51.276;7.116;2022-12-18T12:50:52;1.60;99.90
20946;DHT22;10632;51.276;7.116;2022-12-18T12:53:26;1.60;99.90
20946;DHT22;10632;51.276;7.116;2022-12-18T12:55:54;1.50;99.90
20946;DHT22;10632;51.276;7.116;2022-12-18T12:58:29;1.50;99.90
20946;DHT22;10632;51.276;7.116;2022-12-18T13:01:08;1.50;99.90
20946;DHT22;10632;51.276;7.116;2022-12-18T13:03:44;1.40;99.90
20946;DHT22;10632;51.276;7.116;2022-12-18T13:06:18;1.40;99.90
20946;DHT22;10632;51.276;7.116;2022-12-18T13:08:55;1.40;99.90
20946;DHT22;10632;51.276;7.116;2022-12-18T13:11:35;1.30;99.90
20946;DHT22;10632;51.276;7.116;2022-12-18T13:14:24;1.30;99.90
20946;DHT22;10632;51.276;7.116;2022-12-18T13:16:51;1.30;99.90
20946;DHT22;10632;51.276;7.116;2022-12-18T13:19:22;1.20;99.90
20946;DHT22;10632;51.276;7.116;2022-12-18T13:21:55;1.20;99.90
20946;DHT22;10632;51.276;7.116;2022-12-18T13:24:25;1.10;99.90
20946;DHT22;10632;51.276;7.116;2022-12-18T13:26:56;1.10;99.90
20946;DHT22;10632;51.276;7.116;2022-12-18T13:29:44;1.10;99.90
20946;DHT22;10632;51.276;7.116;2022-12-18T13:32:20;1.10;99.90
20946;DHT22;10632;51.276;7.116;2022-12-18T13:34:47;1.20;99.90
20946;DHT22;10632;51.276;7.116;2022-12-18T13:37:40;1.10;99.90
20946;DHT22;10632;51.276;7.116;2022-12-18T13:43:27;1.00;99.90
20946;DHT22;10632;51.276;7.116;2022-12-18T13:46:06;1.00;99.90
20946;DHT22;10632;51.276;7.116;2022-12-18T13:48:50;1.00;99.90
20946;DHT22;10632;51.276;7.116;2022-12-18T13:51:18;0.90;99.90
20946;DHT22;10632;51.276;7.116;2022-12-18T13:53:49;0.90;99.90
20946;DHT22;10632;51.276;7.116;2022-12-18T13:56:17;0.90;99.90
20946;DHT22;10632;51.276;7.116;2022-12-18T13:58:45;0.80;99.90
20946;DHT22;10632;51.276;7.116;2022-12-18T14:01:23;0.80;99.90
20946;DHT22;10632;51.276;7.116;2022-12-18T14:03:50;0.80;99.90
20946;DHT22;10632;51.276;7.116;2022-12-18T14:06:17;0.80;99.90
20946;DHT22;10632;51.276;7.116;2022-12-18T14:08:44;0.70;99.90
20946;DHT22;10632;51.276;7.116;2022-12-18T14:11:19;0.70;99.90
20946;DHT22;10632;51.276;7.116;2022-12-18T14:13:49;0.70;99.90
20946;DHT22;10632;51.276;7.116;2022-12-18T14:16:17;0.70;99.90
20946;DHT22;10632;51.276;7.116;2022-12-18T14:18:48;0.70;99.90
20946;DHT22;10632;51.276;7.116;2022-12-18T14:21:21;0.70;99.90
20946;DHT22;10632;51.276;7.116;2022-12-18T14:23:48;0.60;99.90
20946;DHT22;10632;51.276;7.116;2022-12-18T14:26:22;0.60;99.90
20946;DHT22;10632;51.276;7.116;2022-12-18T14:28:50;0.60;99.90
20946;DHT22;10632;51.276;7.116;2022-12-18T14:31:18;0.60;99.90
20946;DHT22;10632;51.276;7.116;2022-12-18T14:33:47;0.50;99.90
20946;DHT22;10632;51.276;7.116;2022-12-18T14:36:16;0.50;99.90
20946;DHT22;10632;51.276;7.116;2022-12-18T14:38:49;0.50;99.90
20946;DHT22;10632;51.276;7.116;2022-12-18T14:41:18;0.50;99.90
20946;DHT22;10632;51.276;7.116;2022-12-18T14:43:47;0.50;99.90
20946;DHT22;10632;51.276;7.116;2022-12-18T14:46:33;0.50;99.90
20946;DHT22;10632;51.276;7.116;2022-12-18T14:49:04;0.50;99.90
20946;DHT22;10632;51.276;7.116;2022-12-18T14:51:32;0.50;99.90
20946;DHT22;10632;51.276;7.116;2022-12-18T14:54:01;0.50;99.90
20946;DHT22;10632;51.276;7.116;2022-12-18T14:56:29;0.50;99.90
20946;DHT22;10632;51.276;7.116;2022-12-18T14:58:58;0.50;99.90
20946;DHT22;10632;51.276;7.116;2022-12-18T15:01:28;0.40;99.90
20946;DHT22;10632;51.276;7.116;2022-12-18T15:03:57;0.40;99.90
20946;DHT22;10632;51.276;7.116;2022-12-18T15:06:29;0.40;99.90
20946;DHT22;10632;51.276;7.116;2022-12-18T15:08:57;0.40;99.90
20946;DHT22;10632;51.276;7.116;2022-12-18T15:11:32;0.40;99.90
20946;DHT22;10632;51.276;7.116;2022-12-18T15:14:04;0.40;99.90
20946;DHT22;10632;51.276;7.116;2022-12-18T15:16:51;0.40;99.90
20946;DHT22;10632;51.276;7.116;2022-12-18T15:19:18;0.40;99.90
20946;DHT22;10632;51.276;7.116;2022-12-18T15:21:48;0.40;99.90
20946;DHT22;10632;51.276;7.116;2022-12-18T15:24:18;0.30;99.90
20946;DHT22;10632;51.276;7.116;2022-12-18T15:26:45;0.30;99.90
20946;DHT22;10632;51.276;7.116;2022-12-18T15:29:18;0.20;99.90
20946;DHT22;10632;51.276;7.116;2022-12-18T15:31:58;0.20;99.90
20946;DHT22;10632;51.276;7.116;2022-12-18T15:34:25;0.10;99.90
20946;DHT22;10632;51.276;7.116;2022-12-18T15:36:57;0.10;99.90
20946;DHT22;10632;51.276;7.116;2022-12-18T15:39:24;0.10;99.90
20946;DHT22;10632;51.276;7.116;2022-12-18T15:41:51;0.10;99.90
20946;DHT22;10632;51.276;7.116;2022-12-18T15:44:35;0.10;99.90
20946;DHT22;10632;51.276;7.116;2022-12-18T15:47:10;0.00;99.90
20946;DHT22;10632;51.276;7.116;2022-12-18T15:49:38;0.00;99.90
20946;DHT22;10632;51.276;7.116;2022-12-18T15:52:07;0.00;99.90
20946;DHT22;10632;51.276;7.116;2022-12-18T15:54:37;0.00;99.90
20946;DHT22;10632;51.276;7.116;2022-12-18T15:57:21;0.00;99.90
20946;DHT22;10632;51.276;7.116;2022-12-18T15:59:53;0.00;99.90
20946;DHT22;10632;51.276;7.116;2022-12-18T16:02:22;0.00;99.90
20946;DHT22;10632;51.276;7.116;2022-12-18T16:04:49;0.00;99.90